VOE8EA LFML-LDSP
Flight info
| Callsign | VOE8EA |
|---|---|
| Flight time | 1h 23m |
| Altitude | 36000 |
| Route | NASIK P856 RAPED DCT PIGOS DCT EKSID DCT NOSTA DCT EGHIN DCT RUXOL DCT OMAKU DCT BAKEP/N0432F370 DCT IBENI DCT SAL |
| Aircraft | A320/M-SDFGHIJ1RWY/LB1 |
Departure
| Time | 2026-05-05 12:14 |
|---|---|
| Airport | Marseille Provence Airport (LFML) |
Arrival
| Time | 2026-05-05 13:37 |
|---|---|
| Airport | Split Saint Jerome Airport (LDSP) |
| Time | Latitude | Longitude | Altitude | Speed | Heading |
|---|---|---|---|---|---|
| 2026-05-05 11:43 | 43.43867 | 5.22299 | 47 ft | 0 kts | 73° |
| 2026-05-05 12:06 | 43.43863 | 5.22282 | 46 ft | 4 kts | 74° |
| 2026-05-05 12:06 | 43.43857 | 5.22246 | 46 ft | 4 kts | 82° |
| 2026-05-05 12:06 | 43.43857 | 5.22211 | 41 ft | 4 kts | 115° |
| 2026-05-05 12:07 | 43.43865 | 5.22196 | 45 ft | 0 kts | 160° |
| 2026-05-05 12:08 | 43.43841 | 5.22208 | 46 ft | 4 kts | 162° |
| 2026-05-05 12:09 | 43.43799 | 5.22225 | 47 ft | 13 kts | 164° |
| 2026-05-05 12:09 | 43.43722 | 5.22183 | 47 ft | 13 kts | 226° |
| 2026-05-05 12:09 | 43.43654 | 5.22109 | 48 ft | 14 kts | 180° |
| 2026-05-05 12:09 | 43.43565 | 5.22172 | 50 ft | 13 kts | 149° |
| 2026-05-05 12:10 | 43.43491 | 5.22230 | 50 ft | 15 kts | 150° |
| 2026-05-05 12:10 | 43.43362 | 5.22304 | 55 ft | 21 kts | 156° |
| 2026-05-05 12:10 | 43.43255 | 5.22436 | 52 ft | 20 kts | 134° |
| 2026-05-05 12:10 | 43.43138 | 5.22492 | 59 ft | 18 kts | 189° |
| 2026-05-05 12:11 | 43.43058 | 5.22389 | 62 ft | 17 kts | 277° |
| 2026-05-05 12:11 | 43.43098 | 5.22317 | 62 ft | 0 kts | 314° |
| 2026-05-05 12:13 | 43.43208 | 5.22158 | 57 ft | 60 kts | 314° |
| 2026-05-05 12:13 | 43.43657 | 5.21513 | 45 ft | 123 kts | 313° |
| 2026-05-05 12:13 | 43.44369 | 5.20496 | 86 ft | 166 kts | 313° |
| 2026-05-05 12:13 | 43.45196 | 5.19336 | 586 ft | 174 kts | 313° |
| 2026-05-05 12:14 | 43.46082 | 5.18109 | 1056 ft | 189 kts | 313° |
| 2026-05-05 12:14 | 43.47051 | 5.16753 | 1451 ft | 208 kts | 312° |
| 2026-05-05 12:14 | 43.48141 | 5.15344 | 2074 ft | 219 kts | 321° |
| 2026-05-05 12:14 | 43.49507 | 5.14320 | 2794 ft | 230 kts | 338° |
| 2026-05-05 12:15 | 43.51108 | 5.13889 | 3526 ft | 240 kts | 357° |
| 2026-05-05 12:15 | 43.52785 | 5.14185 | 4295 ft | 248 kts | 16° |
| 2026-05-05 12:15 | 43.54316 | 5.15276 | 5170 ft | 246 kts | 46° |
| 2026-05-05 12:15 | 43.55068 | 5.17219 | 6275 ft | 229 kts | 85° |
| 2026-05-05 12:16 | 43.54818 | 5.19296 | 7023 ft | 219 kts | 125° |
| 2026-05-05 12:16 | 43.53872 | 5.21051 | 7341 ft | 240 kts | 131° |
| 2026-05-05 12:16 | 43.52850 | 5.22836 | 8255 ft | 227 kts | 131° |
| 2026-05-05 12:16 | 43.52100 | 5.24668 | 9307 ft | 219 kts | 108° |
| 2026-05-05 12:17 | 43.51992 | 5.26792 | 9845 ft | 231 kts | 89° |
| 2026-05-05 12:17 | 43.52022 | 5.29065 | 10183 ft | 245 kts | 98° |
| 2026-05-05 12:17 | 43.51772 | 5.31451 | 10544 ft | 260 kts | 105° |
| 2026-05-05 12:17 | 43.51380 | 5.33971 | 10908 ft | 278 kts | 106° |
| 2026-05-05 12:18 | 43.50927 | 5.36659 | 11197 ft | 299 kts | 111° |
| 2026-05-05 12:18 | 43.50121 | 5.39395 | 11409 ft | 320 kts | 116° |
| 2026-05-05 12:18 | 43.49272 | 5.42323 | 11808 ft | 336 kts | 115° |
| 2026-05-05 12:18 | 43.48456 | 5.45371 | 12482 ft | 342 kts | 114° |
| 2026-05-05 12:19 | 43.47658 | 5.48479 | 13199 ft | 346 kts | 114° |
| 2026-05-05 12:19 | 43.46862 | 5.51626 | 13894 ft | 350 kts | 114° |
| 2026-05-05 12:19 | 43.46053 | 5.54806 | 14521 ft | 354 kts | 114° |
| 2026-05-05 12:19 | 43.45229 | 5.58018 | 15158 ft | 357 kts | 114° |
| 2026-05-05 12:20 | 43.44392 | 5.61253 | 15791 ft | 361 kts | 115° |
| 2026-05-05 12:20 | 43.43540 | 5.64518 | 16398 ft | 364 kts | 115° |
| 2026-05-05 12:20 | 43.42680 | 5.67810 | 16998 ft | 368 kts | 115° |
| 2026-05-05 12:20 | 43.41857 | 5.71175 | 17574 ft | 375 kts | 109° |
| 2026-05-05 12:21 | 43.41435 | 5.74763 | 18151 ft | 386 kts | 97° |
| 2026-05-05 12:21 | 43.41491 | 5.78488 | 18659 ft | 393 kts | 91° |
| 2026-05-05 12:21 | 43.41636 | 5.82261 | 19145 ft | 397 kts | 91° |
| 2026-05-05 12:21 | 43.41773 | 5.86080 | 19633 ft | 402 kts | 91° |
| 2026-05-05 12:22 | 43.41905 | 5.89944 | 20114 ft | 407 kts | 91° |
| 2026-05-05 12:22 | 43.42035 | 5.93851 | 20600 ft | 411 kts | 91° |
| 2026-05-05 12:22 | 43.42165 | 5.97804 | 21076 ft | 416 kts | 91° |
| 2026-05-05 12:22 | 43.42296 | 6.01804 | 21560 ft | 421 kts | 91° |
| 2026-05-05 12:23 | 43.42425 | 6.05846 | 22041 ft | 425 kts | 91° |
| 2026-05-05 12:23 | 43.42555 | 6.09930 | 22483 ft | 430 kts | 91° |
| 2026-05-05 12:23 | 43.42686 | 6.14059 | 22956 ft | 434 kts | 91° |
| 2026-05-05 12:23 | 43.42816 | 6.18233 | 23403 ft | 439 kts | 91° |
| 2026-05-05 12:24 | 43.42945 | 6.22449 | 23811 ft | 444 kts | 91° |
| 2026-05-05 12:24 | 43.43011 | 6.26704 | 24243 ft | 444 kts | 97° |
| 2026-05-05 12:24 | 43.42705 | 6.30927 | 24692 ft | 444 kts | 102° |
| 2026-05-05 12:24 | 43.42325 | 6.35101 | 25110 ft | 447 kts | 102° |
| 2026-05-05 12:25 | 43.41942 | 6.39363 | 25541 ft | 451 kts | 102° |
| 2026-05-05 12:25 | 43.41558 | 6.43654 | 25927 ft | 453 kts | 102° |
| 2026-05-05 12:25 | 43.41171 | 6.47973 | 26296 ft | 456 kts | 102° |
| 2026-05-05 12:25 | 43.40781 | 6.52312 | 26674 ft | 459 kts | 102° |
| 2026-05-05 12:26 | 43.40386 | 6.56675 | 27046 ft | 461 kts | 102° |
| 2026-05-05 12:26 | 43.39984 | 6.61058 | 27392 ft | 464 kts | 102° |
| 2026-05-05 12:26 | 43.39574 | 6.65469 | 27831 ft | 466 kts | 102° |
| 2026-05-05 12:26 | 43.39158 | 6.69903 | 28225 ft | 469 kts | 102° |
| 2026-05-05 12:27 | 43.38735 | 6.74365 | 28593 ft | 472 kts | 102° |
| 2026-05-05 12:27 | 43.38319 | 6.78843 | 28935 ft | 475 kts | 101° |
| 2026-05-05 12:27 | 43.38224 | 6.83425 | 29260 ft | 484 kts | 90° |
| 2026-05-05 12:27 | 43.38689 | 6.88025 | 29577 ft | 490 kts | 79° |
| 2026-05-05 12:28 | 43.39716 | 6.92507 | 29894 ft | 494 kts | 68° |
| 2026-05-05 12:28 | 43.41280 | 6.96727 | 30164 ft | 497 kts | 57° |
| 2026-05-05 12:28 | 43.43268 | 7.00629 | 30439 ft | 499 kts | 53° |
| 2026-05-05 12:28 | 43.45308 | 7.04508 | 30700 ft | 501 kts | 53° |
| 2026-05-05 12:29 | 43.47346 | 7.08406 | 30958 ft | 503 kts | 54° |
| 2026-05-05 12:29 | 43.49387 | 7.12332 | 31211 ft | 504 kts | 54° |
| 2026-05-05 12:29 | 43.51429 | 7.16268 | 31463 ft | 506 kts | 54° |
| 2026-05-05 12:29 | 43.53478 | 7.20224 | 31698 ft | 508 kts | 54° |
| 2026-05-05 12:30 | 43.55530 | 7.24185 | 31997 ft | 508 kts | 54° |
| 2026-05-05 12:30 | 43.57580 | 7.28142 | 32334 ft | 507 kts | 54° |
| 2026-05-05 12:30 | 43.59628 | 7.32095 | 32670 ft | 506 kts | 54° |
| 2026-05-05 12:30 | 43.61666 | 7.36033 | 33056 ft | 504 kts | 54° |
| 2026-05-05 12:31 | 43.63701 | 7.39970 | 33434 ft | 502 kts | 54° |
| 2026-05-05 12:31 | 43.65726 | 7.43889 | 33800 ft | 501 kts | 55° |
| 2026-05-05 12:31 | 43.67747 | 7.47809 | 34128 ft | 500 kts | 55° |
| 2026-05-05 12:31 | 43.69759 | 7.51716 | 34407 ft | 499 kts | 55° |
| 2026-05-05 12:32 | 43.71769 | 7.55626 | 34673 ft | 498 kts | 55° |
| 2026-05-05 12:32 | 43.73744 | 7.59473 | 34910 ft | 497 kts | 54° |
| 2026-05-05 12:32 | 43.75742 | 7.63375 | 35194 ft | 496 kts | 54° |
| 2026-05-05 12:32 | 43.77730 | 7.67260 | 35463 ft | 494 kts | 55° |
| 2026-05-05 12:33 | 43.79713 | 7.71141 | 35754 ft | 492 kts | 55° |
| 2026-05-05 12:33 | 43.81688 | 7.75013 | 35934 ft | 492 kts | 55° |
| 2026-05-05 12:33 | 43.85587 | 7.82644 | 35972 ft | 481 kts | 54° |
| 2026-05-05 12:34 | 43.89445 | 7.90185 | 35976 ft | 479 kts | 55° |
| 2026-05-05 12:34 | 43.93289 | 7.97727 | 35949 ft | 478 kts | 55° |
| 2026-05-05 12:35 | 43.97094 | 8.05232 | 35978 ft | 474 kts | 55° |
| 2026-05-05 12:35 | 44.00865 | 8.12710 | 35975 ft | 472 kts | 55° |
| 2026-05-05 12:36 | 44.04236 | 8.20500 | 35965 ft | 470 kts | 69° |
| 2026-05-05 12:36 | 44.05837 | 8.29208 | 35958 ft | 463 kts | 88° |
| 2026-05-05 12:37 | 44.06161 | 8.38121 | 35952 ft | 462 kts | 91° |
| 2026-05-05 12:37 | 44.06466 | 8.47065 | 35954 ft | 463 kts | 91° |
| 2026-05-05 12:38 | 44.06767 | 8.56021 | 35956 ft | 464 kts | 91° |
| 2026-05-05 12:38 | 44.07049 | 8.64989 | 35958 ft | 464 kts | 91° |
| 2026-05-05 12:39 | 44.07327 | 8.73966 | 35947 ft | 465 kts | 91° |
| 2026-05-05 12:39 | 44.07598 | 8.82895 | 35949 ft | 466 kts | 91° |
| 2026-05-05 12:40 | 44.07872 | 8.91901 | 35967 ft | 467 kts | 91° |
| 2026-05-05 12:40 | 44.08132 | 9.00923 | 35964 ft | 467 kts | 91° |
| 2026-05-05 12:41 | 44.08377 | 9.09946 | 35933 ft | 467 kts | 91° |
| 2026-05-05 12:41 | 44.08576 | 9.17503 | 35953 ft | 466 kts | 91° |
| 2026-05-05 12:42 | 44.08823 | 9.26511 | 35964 ft | 466 kts | 91° |
| 2026-05-05 12:42 | 44.09067 | 9.35511 | 35969 ft | 466 kts | 91° |
| 2026-05-05 12:43 | 44.09294 | 9.44512 | 35980 ft | 465 kts | 92° |
| 2026-05-05 12:43 | 44.09508 | 9.53505 | 35959 ft | 465 kts | 91° |
| 2026-05-05 12:44 | 44.09713 | 9.62494 | 35974 ft | 465 kts | 91° |
| 2026-05-05 12:44 | 44.09913 | 9.71489 | 35983 ft | 465 kts | 91° |
| 2026-05-05 12:45 | 44.10115 | 9.80416 | 35989 ft | 465 kts | 91° |
| 2026-05-05 12:45 | 44.10303 | 9.89412 | 35971 ft | 465 kts | 91° |
| 2026-05-05 12:46 | 44.10480 | 9.98411 | 35981 ft | 465 kts | 91° |
| 2026-05-05 12:46 | 44.10656 | 10.07406 | 35986 ft | 465 kts | 91° |
| 2026-05-05 12:47 | 44.10828 | 10.16403 | 35992 ft | 465 kts | 92° |
| 2026-05-05 12:47 | 44.10994 | 10.25392 | 35976 ft | 463 kts | 91° |
| 2026-05-05 12:48 | 44.11143 | 10.34343 | 36023 ft | 463 kts | 91° |
| 2026-05-05 12:48 | 44.11287 | 10.43296 | 36029 ft | 462 kts | 91° |
| 2026-05-05 12:49 | 44.11424 | 10.52243 | 36037 ft | 462 kts | 91° |
| 2026-05-05 12:49 | 44.11562 | 10.61187 | 36027 ft | 462 kts | 91° |
| 2026-05-05 12:50 | 44.11891 | 10.70132 | 36062 ft | 463 kts | 89° |
| 2026-05-05 12:50 | 44.12332 | 10.79066 | 36047 ft | 463 kts | 89° |
| 2026-05-05 12:51 | 44.12743 | 10.88001 | 36014 ft | 462 kts | 89° |
| 2026-05-05 12:51 | 44.13102 | 10.96877 | 36010 ft | 462 kts | 90° |
| 2026-05-05 12:52 | 44.13443 | 11.05813 | 35987 ft | 462 kts | 90° |
| 2026-05-05 12:52 | 44.13788 | 11.14750 | 35984 ft | 462 kts | 89° |
| 2026-05-05 12:53 | 44.14124 | 11.23681 | 35984 ft | 462 kts | 90° |
| 2026-05-05 12:53 | 44.14451 | 11.32619 | 35952 ft | 462 kts | 90° |
| 2026-05-05 12:54 | 44.14915 | 11.46041 | 35961 ft | 463 kts | 90° |
| 2026-05-05 12:55 | 44.15171 | 11.55001 | 35965 ft | 463 kts | 90° |
| 2026-05-05 12:55 | 44.15412 | 11.63967 | 35972 ft | 463 kts | 90° |
| 2026-05-05 12:56 | 44.15657 | 11.72933 | 35972 ft | 463 kts | 90° |
| 2026-05-05 12:56 | 44.15902 | 11.81902 | 35978 ft | 464 kts | 90° |
| 2026-05-05 12:57 | 44.16133 | 11.90874 | 35983 ft | 464 kts | 90° |
| 2026-05-05 12:57 | 44.16363 | 11.99859 | 35987 ft | 464 kts | 90° |
| 2026-05-05 12:58 | 44.16588 | 12.08838 | 35972 ft | 464 kts | 89° |
| 2026-05-05 12:58 | 44.16805 | 12.17803 | 35991 ft | 463 kts | 89° |
| 2026-05-05 12:59 | 44.17006 | 12.26756 | 36027 ft | 462 kts | 90° |
| 2026-05-05 12:59 | 44.17198 | 12.35702 | 36025 ft | 462 kts | 90° |
| 2026-05-05 13:00 | 44.17487 | 12.49087 | 36017 ft | 460 kts | 89° |
| 2026-05-05 13:01 | 44.17365 | 12.62410 | 36023 ft | 457 kts | 101° |
| 2026-05-05 13:01 | 44.16851 | 12.66771 | 36025 ft | 456 kts | 101° |
| 2026-05-05 13:01 | 44.15823 | 12.75494 | 35999 ft | 456 kts | 101° |
| 2026-05-05 13:02 | 44.14793 | 12.84208 | 35981 ft | 457 kts | 101° |
| 2026-05-05 13:02 | 44.13751 | 12.92955 | 35748 ft | 460 kts | 101° |
| 2026-05-05 13:03 | 44.13222 | 12.97343 | 35499 ft | 460 kts | 101° |
| 2026-05-05 13:03 | 44.12689 | 13.01743 | 35247 ft | 461 kts | 101° |
| 2026-05-05 13:03 | 44.12157 | 13.06142 | 34999 ft | 462 kts | 101° |
| 2026-05-05 13:03 | 44.11626 | 13.10553 | 34762 ft | 462 kts | 101° |
| 2026-05-05 13:04 | 44.11099 | 13.14911 | 34517 ft | 464 kts | 101° |
| 2026-05-05 13:04 | 44.10560 | 13.19342 | 34281 ft | 466 kts | 101° |
| 2026-05-05 13:04 | 44.10016 | 13.23789 | 34046 ft | 466 kts | 101° |
| 2026-05-05 13:04 | 44.09469 | 13.28235 | 33782 ft | 465 kts | 101° |
| 2026-05-05 13:05 | 44.08922 | 13.32660 | 33504 ft | 463 kts | 101° |
| 2026-05-05 13:05 | 44.08377 | 13.37065 | 33243 ft | 461 kts | 101° |
| 2026-05-05 13:05 | 44.07833 | 13.41442 | 32977 ft | 458 kts | 101° |
| 2026-05-05 13:05 | 44.07291 | 13.45802 | 32712 ft | 456 kts | 101° |
| 2026-05-05 13:06 | 44.06751 | 13.50135 | 32441 ft | 454 kts | 101° |
| 2026-05-05 13:06 | 44.06213 | 13.54448 | 32182 ft | 452 kts | 101° |
| 2026-05-05 13:06 | 44.05676 | 13.58746 | 31929 ft | 450 kts | 101° |
| 2026-05-05 13:06 | 44.05139 | 13.63015 | 31672 ft | 447 kts | 101° |
| 2026-05-05 13:07 | 44.04600 | 13.67265 | 31421 ft | 445 kts | 101° |
| 2026-05-05 13:07 | 44.04063 | 13.71485 | 31176 ft | 443 kts | 101° |
| 2026-05-05 13:07 | 44.03526 | 13.75693 | 30927 ft | 441 kts | 101° |
| 2026-05-05 13:07 | 44.02994 | 13.79876 | 30341 ft | 443 kts | 101° |
| 2026-05-05 13:08 | 44.02442 | 13.84193 | 28737 ft | 464 kts | 101° |
| 2026-05-05 13:08 | 44.01864 | 13.88695 | 26969 ft | 483 kts | 101° |
| 2026-05-05 13:08 | 44.01343 | 13.93403 | 25074 ft | 503 kts | 96° |
| 2026-05-05 13:08 | 44.01083 | 13.98273 | 24003 ft | 503 kts | 95° |
| 2026-05-05 13:09 | 44.00825 | 14.03028 | 23735 ft | 484 kts | 95° |
| 2026-05-05 13:09 | 44.00568 | 14.07596 | 23486 ft | 466 kts | 96° |
| 2026-05-05 13:09 | 44.00314 | 14.12012 | 23212 ft | 452 kts | 96° |
| 2026-05-05 13:09 | 44.00063 | 14.16295 | 22930 ft | 439 kts | 96° |
| 2026-05-05 13:10 | 43.99816 | 14.20462 | 22670 ft | 427 kts | 96° |
| 2026-05-05 13:10 | 43.99572 | 14.24522 | 22400 ft | 417 kts | 96° |
| 2026-05-05 13:10 | 43.99335 | 14.28487 | 22137 ft | 407 kts | 96° |
| 2026-05-05 13:10 | 43.99106 | 14.32359 | 21876 ft | 398 kts | 96° |
| 2026-05-05 13:11 | 43.98884 | 14.36144 | 21623 ft | 389 kts | 96° |
| 2026-05-05 13:11 | 43.98666 | 14.39849 | 21364 ft | 381 kts | 96° |
| 2026-05-05 13:11 | 43.98449 | 14.43480 | 21111 ft | 373 kts | 96° |
| 2026-05-05 13:11 | 43.98233 | 14.47043 | 20857 ft | 368 kts | 96° |
| 2026-05-05 13:12 | 43.98018 | 14.50573 | 20617 ft | 366 kts | 96° |
| 2026-05-05 13:12 | 43.97802 | 14.54088 | 20365 ft | 364 kts | 96° |
| 2026-05-05 13:12 | 43.97585 | 14.57583 | 20120 ft | 363 kts | 96° |
| 2026-05-05 13:12 | 43.97369 | 14.61071 | 19876 ft | 362 kts | 96° |
| 2026-05-05 13:13 | 43.97154 | 14.64541 | 19633 ft | 360 kts | 96° |
| 2026-05-05 13:13 | 43.96942 | 14.67952 | 19403 ft | 359 kts | 96° |
| 2026-05-05 13:13 | 43.96727 | 14.71398 | 19164 ft | 358 kts | 96° |
| 2026-05-05 13:13 | 43.96511 | 14.74826 | 18928 ft | 356 kts | 96° |
| 2026-05-05 13:14 | 43.96296 | 14.78249 | 18695 ft | 355 kts | 96° |
| 2026-05-05 13:14 | 43.96080 | 14.81656 | 18462 ft | 354 kts | 96° |
| 2026-05-05 13:14 | 43.95863 | 14.85053 | 18216 ft | 353 kts | 96° |
| 2026-05-05 13:14 | 43.95645 | 14.88436 | 17942 ft | 351 kts | 96° |
| 2026-05-05 13:15 | 43.95429 | 14.91802 | 17678 ft | 350 kts | 96° |
| 2026-05-05 13:15 | 43.95213 | 14.95156 | 17425 ft | 348 kts | 96° |
| 2026-05-05 13:15 | 43.94998 | 14.98497 | 17158 ft | 346 kts | 96° |
| 2026-05-05 13:15 | 43.94783 | 15.01818 | 16915 ft | 345 kts | 97° |
| 2026-05-05 13:16 | 43.94563 | 15.05125 | 16663 ft | 344 kts | 97° |
| 2026-05-05 13:16 | 43.94343 | 15.08418 | 16415 ft | 342 kts | 97° |
| 2026-05-05 13:16 | 43.94080 | 15.11688 | 16166 ft | 340 kts | 102° |
| 2026-05-05 13:16 | 43.93437 | 15.14817 | 15916 ft | 336 kts | 115° |
| 2026-05-05 13:17 | 43.92372 | 15.17653 | 16027 ft | 332 kts | 126° |
| 2026-05-05 13:17 | 43.90952 | 15.20173 | 16076 ft | 331 kts | 137° |
| 2026-05-05 13:17 | 43.89272 | 15.22327 | 16083 ft | 329 kts | 142° |
| 2026-05-05 13:17 | 43.87553 | 15.24431 | 16080 ft | 329 kts | 142° |
| 2026-05-05 13:18 | 43.85838 | 15.26531 | 16078 ft | 329 kts | 142° |
| 2026-05-05 13:18 | 43.84122 | 15.28631 | 16075 ft | 329 kts | 142° |
| 2026-05-05 13:18 | 43.82403 | 15.30729 | 16070 ft | 330 kts | 142° |
| 2026-05-05 13:18 | 43.80679 | 15.32825 | 16068 ft | 330 kts | 142° |
| 2026-05-05 13:19 | 43.78951 | 15.34926 | 16064 ft | 331 kts | 142° |
| 2026-05-05 13:19 | 43.77221 | 15.37027 | 16059 ft | 331 kts | 142° |
| 2026-05-05 13:19 | 43.75491 | 15.39126 | 16058 ft | 331 kts | 142° |
| 2026-05-05 13:19 | 43.73762 | 15.41226 | 16013 ft | 332 kts | 142° |
| 2026-05-05 13:20 | 43.72008 | 15.43354 | 15412 ft | 339 kts | 142° |
| 2026-05-05 13:20 | 43.70229 | 15.45507 | 14906 ft | 341 kts | 141° |
| 2026-05-05 13:20 | 43.68438 | 15.47678 | 14416 ft | 343 kts | 141° |
| 2026-05-05 13:20 | 43.66641 | 15.49856 | 13979 ft | 343 kts | 142° |
| 2026-05-05 13:21 | 43.64846 | 15.52031 | 13550 ft | 342 kts | 141° |
| 2026-05-05 13:21 | 43.63076 | 15.54176 | 13058 ft | 335 kts | 142° |
| 2026-05-05 13:21 | 43.61336 | 15.56281 | 12427 ft | 328 kts | 142° |
| 2026-05-05 13:21 | 43.59652 | 15.58314 | 11961 ft | 317 kts | 142° |
| 2026-05-05 13:22 | 43.58010 | 15.60295 | 11516 ft | 311 kts | 141° |
| 2026-05-05 13:22 | 43.56390 | 15.62244 | 11077 ft | 308 kts | 142° |
| 2026-05-05 13:22 | 43.54774 | 15.64181 | 10819 ft | 307 kts | 142° |
| 2026-05-05 13:22 | 43.53178 | 15.66098 | 10587 ft | 302 kts | 141° |
| 2026-05-05 13:23 | 43.51596 | 15.67999 | 10372 ft | 300 kts | 141° |
| 2026-05-05 13:23 | 43.50024 | 15.69886 | 10064 ft | 299 kts | 142° |
| 2026-05-05 13:23 | 43.48470 | 15.71754 | 9810 ft | 295 kts | 143° |
| 2026-05-05 13:23 | 43.46950 | 15.73580 | 9580 ft | 293 kts | 142° |
| 2026-05-05 13:24 | 43.45397 | 15.75439 | 9354 ft | 292 kts | 143° |
| 2026-05-05 13:24 | 43.43866 | 15.77268 | 9127 ft | 291 kts | 143° |
| 2026-05-05 13:24 | 43.42344 | 15.79086 | 8906 ft | 289 kts | 143° |
| 2026-05-05 13:24 | 43.40847 | 15.80877 | 8694 ft | 288 kts | 141° |
| 2026-05-05 13:25 | 43.39341 | 15.82682 | 8475 ft | 287 kts | 143° |
| 2026-05-05 13:25 | 43.37837 | 15.84481 | 8257 ft | 286 kts | 142° |
| 2026-05-05 13:25 | 43.36340 | 15.86271 | 8036 ft | 285 kts | 143° |
| 2026-05-05 13:25 | 43.34847 | 15.88050 | 7821 ft | 283 kts | 141° |
| 2026-05-05 13:26 | 43.33364 | 15.89817 | 7605 ft | 282 kts | 143° |
| 2026-05-05 13:26 | 43.31903 | 15.91622 | 7389 ft | 284 kts | 136° |
| 2026-05-05 13:26 | 43.30745 | 15.93815 | 7168 ft | 286 kts | 120° |
| 2026-05-05 13:26 | 43.29918 | 15.96319 | 6949 ft | 288 kts | 117° |
| 2026-05-05 13:27 | 43.29119 | 15.98820 | 6711 ft | 285 kts | 117° |
| 2026-05-05 13:27 | 43.28322 | 16.01303 | 6477 ft | 281 kts | 117° |
| 2026-05-05 13:27 | 43.27541 | 16.03727 | 6138 ft | 276 kts | 117° |
| 2026-05-05 13:27 | 43.26773 | 16.06105 | 5899 ft | 269 kts | 117° |
| 2026-05-05 13:28 | 43.26272 | 16.07658 | 5850 ft | 269 kts | 117° |
| 2026-05-05 13:28 | 43.25276 | 16.10794 | 5606 ft | 268 kts | 112° |
| 2026-05-05 13:28 | 43.25062 | 16.13330 | 5397 ft | 273 kts | 85° |
| 2026-05-05 13:28 | 43.25422 | 16.14990 | 5255 ft | 278 kts | 66° |
| 2026-05-05 13:29 | 43.26669 | 16.17005 | 5023 ft | 282 kts | 36° |
| 2026-05-05 13:29 | 43.28471 | 16.18099 | 4790 ft | 286 kts | 21° |
| 2026-05-05 13:29 | 43.30319 | 16.19072 | 4554 ft | 283 kts | 24° |
| 2026-05-05 13:29 | 43.32129 | 16.20127 | 4318 ft | 283 kts | 26° |
| 2026-05-05 13:30 | 43.33900 | 16.21260 | 4153 ft | 277 kts | 33° |
| 2026-05-05 13:30 | 43.35401 | 16.22805 | 4046 ft | 263 kts | 46° |
| 2026-05-05 13:30 | 43.36733 | 16.24470 | 3942 ft | 255 kts | 45° |
| 2026-05-05 13:30 | 43.38042 | 16.26067 | 3843 ft | 248 kts | 45° |
| 2026-05-05 13:31 | 43.39315 | 16.27607 | 3723 ft | 238 kts | 45° |
| 2026-05-05 13:31 | 43.40538 | 16.29089 | 3553 ft | 231 kts | 45° |
| 2026-05-05 13:31 | 43.41721 | 16.30525 | 3419 ft | 221 kts | 46° |
| 2026-05-05 13:31 | 43.42853 | 16.31896 | 3232 ft | 213 kts | 46° |
| 2026-05-05 13:32 | 43.43944 | 16.33218 | 3069 ft | 208 kts | 47° |
| 2026-05-05 13:32 | 43.45011 | 16.34515 | 2900 ft | 200 kts | 47° |
| 2026-05-05 13:32 | 43.46050 | 16.35783 | 2605 ft | 199 kts | 44° |
| 2026-05-05 13:32 | 43.47081 | 16.37039 | 2341 ft | 196 kts | 45° |
| 2026-05-05 13:33 | 43.48060 | 16.38348 | 1984 ft | 197 kts | 48° |
| 2026-05-05 13:33 | 43.49073 | 16.39551 | 1850 ft | 185 kts | 41° |
| 2026-05-05 13:33 | 43.50056 | 16.40505 | 1907 ft | 160 kts | 38° |
| 2026-05-05 13:33 | 43.50963 | 16.41368 | 1969 ft | 155 kts | 38° |
| 2026-05-05 13:34 | 43.51904 | 16.42015 | 1866 ft | 153 kts | 19° |
| 2026-05-05 13:34 | 43.52979 | 16.42194 | 1520 ft | 158 kts | 357° |
| 2026-05-05 13:34 | 43.53957 | 16.41591 | 1292 ft | 156 kts | 313° |
| 2026-05-05 13:34 | 43.54477 | 16.40350 | 1247 ft | 146 kts | 289° |
| 2026-05-05 13:35 | 43.54826 | 16.39032 | 1406 ft | 146 kts | 287° |
| 2026-05-05 13:35 | 43.55223 | 16.37715 | 1474 ft | 151 kts | 293° |
| 2026-05-05 13:35 | 43.55738 | 16.36447 | 1300 ft | 151 kts | 300° |
| 2026-05-05 13:35 | 43.56301 | 16.35228 | 967 ft | 151 kts | 299° |
| 2026-05-05 13:36 | 43.56532 | 16.33923 | 885 ft | 136 kts | 248° |
| 2026-05-05 13:36 | 43.55908 | 16.32974 | 748 ft | 139 kts | 208° |
| 2026-05-05 13:36 | 43.55163 | 16.32109 | 432 ft | 142 kts | 231° |
| 2026-05-05 13:36 | 43.54574 | 16.31026 | 112 ft | 143 kts | 230° |
| 2026-05-05 13:37 | 43.54020 | 16.30034 | 77 ft | 110 kts | 232° |
| 2026-05-05 13:37 | 43.53660 | 16.29387 | 88 ft | 60 kts | 233° |
| 2026-05-05 13:37 | 43.53447 | 16.29001 | 83 ft | 47 kts | 232° |
| 2026-05-05 13:37 | 43.53263 | 16.28670 | 88 ft | 35 kts | 232° |
| 2026-05-05 13:38 | 43.53204 | 16.28572 | 92 ft | 2 kts | 154° |
| 2026-05-05 13:38 | 43.53239 | 16.28642 | 90 ft | 17 kts | 44° |
| 2026-05-05 13:38 | 43.53319 | 16.28772 | 89 ft | 19 kts | 54° |
| 2026-05-05 13:38 | 43.53427 | 16.28960 | 83 ft | 30 kts | 53° |
| 2026-05-05 13:39 | 43.53556 | 16.29194 | 85 ft | 31 kts | 52° |
| 2026-05-05 13:39 | 43.53683 | 16.29430 | 85 ft | 30 kts | 64° |
| 2026-05-05 13:39 | 43.53697 | 16.29679 | 85 ft | 18 kts | 65° |
| 2026-05-05 13:39 | 43.53780 | 16.29823 | 81 ft | 18 kts | 57° |
| 2026-05-05 13:40 | 43.53741 | 16.29884 | 79 ft | 0 kts | 222° |